Boerne, TX

6:12 PM CDT on September 02, 2014 (GMT -0500)
Boerne Stage Field | Change Station
CLOSE
Current Station
Airport
Location: Boerne Stage Field,
Elevation: 1385 ft
Nearby Weather Stations

Elev 1385 ft 29.72 °N, 98.69 °W | Updated 17 minutes ago

Clear
Clear
91 °F
Feels Like 93 °F
N
13
Wind Variable Wind from SE
Gusts 17 mph

Today
High -- | Low -- °F
--% Chance of Precip.
Yesterday
High -- | Low -- °F
Precip. -- in
7:12 AM 7:56 PM
First Quarter, 56% visible
Pressure 29.92 in
Visibility 10.0 miles
Clouds Clear
Heat Index 93 °F
Dew Point 64 °F
Humidity 41%
Rainfall 0.00 in
Snow Depth Not available.
UV 2 out of 12
Pollen 9.80 out of 12
Ozone Good
PM2.5 Good
Flu Activity Not available.
METAR K5C1 022255Z AUTO 13011G15KT 10SM CLR 33/18 A2992 RMK AO1

More Conditions Fewer Conditions

Pressure 29.92 in
Visibility 10.0 miles
Clouds Clear
Heat Index 93 °F
Dew Point 64 °F
Humidity 41%
Rainfall 0.00 in
Snow Depth Not available.
UV 2 out of 12
Pollen 9.80 out of 12
Ozone Good
PM2.5 Good
Flu Activity Not available.
METAR K5C1 022255Z AUTO 13011G15KT 10SM CLR 33/18 A2992 RMK AO1

More Conditions Fewer Conditions

Nowcast | as of 4:44 PM CDT on September 2, 2014

Scattered showers and possibly an isolated thunderstorm will move into the area from the southeast and move to the northwest through 7 PM. Rainfall will be spotty with most locations remaining dry...and only a few spots getting up to 1/10 inch.

×

10-Day Weather Forecast

Almanac

Astronomy

Sep. 02, 2014 Rise Set
Actual Time 7:12 AM CDT 7:56 PM CDT
Civil Twilight 6:48 AM CDT 8:20 PM CDT
Nautical Twilight 6:19 AM CDT 8:48 PM CDT
Astronomical Twilight 5:50 AM CDT 9:17 PM CDT
Moon 2:27 PM CDT 12:29 AM CDT
Length of Visible Light 13h 31m
Length of Day
12h 43m
Tomorrow will be 1m 44s shorter.
First Quarter, 56% of the Moon is Illuminated
Today
First Quarter
Sep 8
Full
Sep 15
Last Quarter
Sep 24
New
Oct 1
First Quarter

Today's Extremes

State Highs State Lows

Community

WunderPhotos

Upload Photos

1,749,794 photos uploaded!

Nearby

Air Quality

  Air Quality AQ Index Pollutant
Yesterday Good
PM2.5
Yesterday Good
OZONE
Current Good
PM2.5
Current Good
OZONE
Tuesday Good
OZONE
Tuesday Good
PM10
Wednesday Good
OZONE
Wednesday Good
PM10
Thursday Good
OZONE
Thursday Good
PM10
Friday Good
OZONE
Friday Good
PM10

Snow Depth

Station Depth Elevation
No new snow has been reported.

Earthquake Activity

City Distance Mag. Time & Date
No recent earthquake activity has been reported nearby.
Minimum magnitude displayed is 2.5.

Coastal Water Temperatures

Place Temperature
No Stations Reporting

Nearby Weather Stations